Enduro du Var > Results

4 March 2018 @ Cabasse (83)
Enduro • Moto Club du Var • LIGUE DE PROVENCE

165 participants

 

Results

  1. scratch Elite
  2. scratch ligue 1
  3. scratch ligue 2
  4. scratch ligue 3

scratch ligue 1

Place Number Participant Rg/sc Pénalité Temps
1 108 ICHARD Loic Ligue 1 E1 1 16:14.73
2 603 HUBER Eric Ligue 1 Vétéran 1 16:14.93
3 216 ROUGON Jerome Ligue 1 E2 1 16:15.71
4 600 LAFFONT Eric Ligue 1 Vétéran 2 16:27.33
5 221 DEWEIRDT Michael Ligue 1 E2 2 16:33.26
6 609 GOMOT Guillaume Ligue 1 Vétéran 3 16:39.33
7 100 DJEBARI Dorian Ligue 1 E1 2 16:40.90
8 300 KLEINDIENST Damien Ligue 1 E3 1 16:42.80
9 299 ABEL Olivier Ligue 1 E2 3 16:46.01
10 113 SANCHEZ Tony Ligue 1 E1 3 16:47.20
11 205 ALVES Stephane Ligue 1 E2 4 16:50.19
12 219 PASQUIER Laurent Ligue 1 E2 5 16:50.69
13 105 PEREZ Fabien Ligue 1 E1 4 16:51.27
14 602 CAMPANA Marc Ligue 1 Vétéran 4 16:54.72
15 313 DJEBARI Cyril Ligue 1 E3 2 16:58.73
16 111 GRANDORDY Lilian Ligue 1 E1 5 16:59.82
17 107 DI FUSCO Theo Ligue 1 E1 6 17:06.48
18 308 WLODARCZAK Alexandre Ligue 1 E3 3 17:10.48
19 215 LEJEUNE Hugo Ligue 1 E2 6 17:15.28
20 303 RICHAUD Jordan Ligue 1 E3 4 10.0 17:15.85
21 599 POCCHIOLA Olivier Ligue 1 Vétéran 5 1:00.0 17:17.02
22 307 GUYON Eric Ligue 1 E3 5 17:23.06
23 222 VOUT Gregory Ligue 1 E2 7 17:23.80
24 610 JOHANN Norbert Ligue 1 Vétéran 6 17:24.37
25 232 REYMOND Raphael Ligue 1 E2 8 17:26.19
26 591 MIRETE Cyril Ligue 1 Vétéran 7 17:28.56
27 201 ISNARD Maxime Ligue 1 E2 9 17:30.13
28 209 CANONNE Arthur Ligue 1 E2 10 1:00.0 17:32.48
29 310 SABATIER Benjamin Ligue 1 E3 6 17:35.96
30 305 OLLIVE Yannick Ligue 1 E3 7 17:41.40
31 611 MERLE Pascal Ligue 1 Vétéran II 1 17:43.36
32 220 COMBA David Ligue 1 E2 11 17:45.46
33 114 PELISSIE Alexis Ligue 1 E1 7 17:46.63
34 574 BELMON Stephane Ligue 1 Vétéran II 2 17:54.93
35 302 ROBERT Eddy Ligue 1 E3 8 17:56.39
36 208 BEVENGUT Wilfrid Ligue 1 E2 12 17:57.16
37 106 VOEGTLIN Florian Ligue 1 E1 8 17:57.39
38 582 MORETTI Ludovic Ligue 1 Vétéran 8 10.0 18:00.11
39 551 DEGIOVANNI Jean Luc Ligue 1 Vétéran II 3 18:00.17
39 230 BERNARD Antoine Ligue 1 E2 13 18:00.17
41 207 VILLEMUS Ludovic Ligue 1 E2 14 18:04.71
42 576 CALIGARIS Christian Ligue 1 Vétéran II 4 18:05.59
43 203 CARDONA Geoffrey Ligue 1 E2 15 18:09.08
44 233 CHABALIER Guillaume Ligue 1 E2 16 10.0 18:09.29
45 102 TRAVERSA Lucas Ligue 1 E1 9 18:11.54
46 550 HUMBERT Olivier Ligue 1 Vétéran II 5 18:11.70
47 608 CAZZULO Marc Ligue 1 Vétéran II 6 18:18.06
48 561 RICHAUD Luc Ligue 1 Vétéran II 7 18:18.28
49 227 SAURET Florent Ligue 1 E2 17 18:19.41
50 117 ARNAUDO Geoffrey Ligue 1 E1 10 18:20.94
51 231 ANTHOUARD Alexandre Ligue 1 E2 18 18:26.76
52 562 CORNILLE Eric Ligue 1 Vétéran II 8 18:30.52
53 206 NICOLAS Julien Ligue 1 E2 19 18:34.64
54 312 JAYET Julien Ligue 1 E3 9 18:37.27
55 214 VAN DER SLIKKE Jannis Ligue 1 E2 20 18:37.48
56 552 GIGNOUX Michel Ligue 1 Vétéran II 9 18:40.03
57 225 TRILLES Jerome Ligue 1 E2 21 18:46.76
58 573 SCHENKEL Philippe Ligue 1 Vétéran II 10 18:47.12
59 309 LARTIGUE Antony Ligue 1 E3 10 18:49.08
60 577 SAVOYE Jean Marc Ligue 1 Vétéran II 11 18:51.81
61 202 JACQUEMIN Christophe Ligue 1 E2 22 10.0 18:55.83
62 116 CAUVIN Romain Ligue 1 E1 11 18:57.74
63 306 BUONOMO Romain Ligue 1 E3 11 19:00.97
64 103 GIANINI Cyril Ligue 1 E1 12 19:02.33
65 563 PELLEGRINO Laurent Ligue 1 Vétéran II 12 19:07.35
66 553 LANGASQUE Marc Ligue 1 Vétéran II 13 19:18.41
67 594 DEGUILHEM Laurent Ligue 1 Vétéran 9 19:28.95
68 583 AMBROSINO Didier Ligue 1 Vétéran 10 19:31.28
69 304 GARCIA Nicolas Ligue 1 E3 12 19:36.72
70 596 DA SILVA FRANCISCO Tony Ligue 1 Vétéran 11 19:40.68
71 580 RICHARD Thierry Ligue 1 Vétéran 12 19:42.94
72 212 BOYER Jean Yann Ligue 1 E2 23 19:44.51
73 571 BAUDET Christophe Ligue 1 Vétéran II 14 20:03.83
74 554 DE KORSAK Philippe Ligue 1 Vétéran II 15 10.0 20:04.93
75 311 FRERE Laurent Ligue 1 E3 13 20:06.08
76 223 BUSCAJA Jean Michel Ligue 1 E2 24 20:10.26
77 581 CERESOLA Bernard Ligue 1 Vétéran 13 20:19.10
78 593 PARDON Jean Pierre Ligue 1 Vétéran 14 20:19.38
79 589 CORREIA VALENTE Sergio Ligue 1 Vétéran 15 20:30.67
80 578 MENARDO Jean Pierre Ligue 1 Vétéran II 16 20:31.77
81 604 GARCIA Frederic Ligue 1 Vétéran 16 20:39.27
82 213 CORNIOLO Cedric Ligue 1 E2 25 20:54.65
83 607 COTTE Christophe Ligue 1 Vétéran II 17 21:05.51
84 606 AMIGAS Frederic Ligue 1 Vétéran 17 21:17.20
85 559 LAUMONIER Jerome Ligue 1 Vétéran II 18 21:34.72
86 557 ROY Cyprien Ligue 1 Vétéran II 19 21:40.97
87 228 RIBIERE Laurent Ligue 1 E2 26 22:05.07
88 556 DARD Emmanuel Ligue 1 Vétéran II 20 22:20.86
89 110 PLATEAU Bastien Ligue 1 E1 13 22:31.36
90 224 VILOTTA Alexandre Ligue 1 E2 27 23:55.68
91 590 BARON Gael Ligue 1 Vétéran 18 23:58.05
92 565 HOFFER Jean-Bernard Ligue 1 Vétéran II 21 24:02.29
93 115 BERGALA Antoine Ligue 1 E1 14 25:08.39
94 566 GARCIA Thierry Ligue 1 Vétéran II 22 25:26.23
95 101 DELFINO Mathys Ligue 1 E1 15 26:13.93
96 109 DOLCI Mathias Ligue 1 E1 16 9:00.0 26:16.03
97 104 TOURNISSOUX Jeremy Ligue 1 E1 17 3:00.0 27:09.18
98 601 BOYETTE Laurent Ligue 1 Vétéran 19 28:31.18
99 218 VARENNES Yohann Ligue 1 E2 28 50:10.0 1:16:43.17

- DNF : Do Not Finish (non arrivé)
- DNS : Do Not Start (non parti)